Time;durP1;ratioP1;P1;durP2;ratioP2;P2;SDS_P1;SDS_P2;PMS_P1;PMS_P2;Temp;Humidity;BMP_temperature;BMP_pressure;BME280_temperature;BME280_humidity;BME280_pressure;Samples;Min_cycle;Max_cycle;Signal;HPM_P1;HPM_P2
2024/04/03 00:02:07;;;;;;;3.47;1.20;;;23.30;54.40;;;;;;5078069;28;20313;-71
2024/04/03 00:04:35;;;;;;;9.43;1.70;;;23.30;54.80;;;;;;5076082;28;20202;-71
2024/04/03 00:07:03;;;;;;;3.43;1.60;;;23.20;55.70;;;;;;5075237;28;20179;-71
2024/04/03 00:09:30;;;;;;;9.33;1.40;;;23.40;55.50;;;;;;5072454;28;20184;-69
2024/04/03 00:11:58;;;;;;;11.13;1.53;;;23.50;56.00;;;;;;5076636;28;20588;-70
2024/04/03 00:14:25;;;;;;;7.23;1.63;;;23.50;56.00;;;;;;5075133;28;20186;-70
2024/04/03 00:16:52;;;;;;;9.83;1.80;;;23.80;56.30;;;;;;5078262;28;20337;-70
2024/04/03 00:19:19;;;;;;;7.47;1.77;;;23.90;57.30;;;;;;5074339;28;20215;-70
2024/04/03 00:21:52;;;;;;;7.60;1.80;;;24.00;56.50;;;;;;5081174;28;20182;-71
2024/04/03 00:24:20;;;;;;;8.97;1.73;;;24.30;56.30;;;;;;5074940;28;20270;-69
2024/04/03 00:26:47;;;;;;;10.33;1.97;;;24.30;55.60;;;;;;5078203;28;20487;-70
2024/04/03 00:29:15;;;;;;;4.80;1.50;;;24.50;54.60;;;;;;5073889;28;20171;-71
2024/04/03 00:31:42;;;;;;;10.43;2.00;;;24.80;54.40;;;;;;5074772;28;20187;-73
2024/04/03 00:34:09;;;;;;;7.07;2.07;;;25.00;53.30;;;;;;5073723;28;20185;-70
2024/04/03 00:36:37;;;;;;;5.40;1.40;;;24.90;53.50;;;;;;5073905;28;20179;-70
2024/04/03 00:39:04;;;;;;;8.27;1.87;;;24.60;54.70;;;;;;5071992;28;20235;-72
2024/04/03 00:41:31;;;;;;;9.77;1.37;;;24.60;54.20;;;;;;5060054;28;20190;-72
2024/04/03 00:43:58;;;;;;;5.70;1.87;;;24.30;54.40;;;;;;5071338;28;20263;-70
2024/04/03 00:46:26;;;;;;;9.03;1.73;;;24.30;55.80;;;;;;5072888;28;20182;-70
2024/04/03 00:48:54;;;;;;;8.33;1.47;;;24.30;56.70;;;;;;5075326;28;20274;-71
2024/04/03 00:51:22;;;;;;;7.80;1.50;;;24.30;56.60;;;;;;5074396;28;20229;-70
2024/04/03 00:53:50;;;;;;;5.63;1.50;;;24.10;57.50;;;;;;5077493;28;20463;-71
2024/04/03 00:56:18;;;;;;;4.50;1.57;;;24.80;55.90;;;;;;5073397;28;20306;-71
2024/04/03 00:58:45;;;;;;;8.07;1.60;;;25.00;54.30;;;;;;5076546;28;20336;-71
2024/04/03 01:01:14;;;;;;;5.40;1.57;;;25.20;53.70;;;;;;5073204;28;20179;-71
2024/04/03 01:03:42;;;;;;;7.57;1.80;;;25.30;53.60;;;;;;5077163;28;20649;-69
2024/04/03 01:06:10;;;;;;;7.33;1.83;;;25.30;53.80;;;;;;5080239;28;20186;-71
2024/04/03 01:08:37;;;;;;;4.77;1.80;;;25.00;54.40;;;;;;5076097;28;20198;-69
2024/04/03 01:11:04;;;;;;;5.73;1.50;;;24.60;55.70;;;;;;5070395;28;20229;-73
2024/04/03 01:13:32;;;;;;;5.07;1.77;;;24.30;56.40;;;;;;5075133;28;20190;-69
2024/04/03 01:16:04;;;;;;;8.03;1.77;;;24.10;57.50;;;;;;5074696;28;20215;-73
2024/04/03 01:18:32;;;;;;;8.77;1.70;;;24.20;58.00;;;;;;5095466;28;20215;-73
2024/04/03 01:21:00;;;;;;;5.40;1.50;;;24.00;58.90;;;;;;5074617;28;20206;-74
2024/04/03 01:23:27;;;;;;;7.37;1.67;;;23.80;58.80;;;;;;5074840;28;20187;-70
2024/04/03 01:25:54;;;;;;;7.00;1.70;;;23.90;59.90;;;;;;5070489;28;20717;-70
2024/04/03 01:28:23;;;;;;;5.83;1.83;;;24.00;59.80;;;;;;5074717;28;20520;-71
2024/04/03 01:30:51;;;;;;;5.23;1.60;;;23.90;59.80;;;;;;5078624;28;20645;-72
2024/04/03 01:33:20;;;;;;;5.63;1.87;;;23.90;60.00;;;;;;5072381;28;20187;-75
2024/04/03 01:35:47;;;;;;;5.43;1.50;;;23.80;60.20;;;;;;5073015;28;20202;-72
2024/04/03 01:38:15;;;;;;;7.33;2.07;;;24.20;59.60;;;;;;5075313;28;20223;-75
2024/04/03 01:40:42;;;;;;;4.27;1.37;;;24.70;58.60;;;;;;5062484;28;20286;-72
2024/04/03 01:43:09;;;;;;;13.53;1.87;;;24.80;57.60;;;;;;5074926;28;20187;-73
2024/04/03 01:45:37;;;;;;;7.57;1.70;;;25.10;56.90;;;;;;5073900;28;20653;-73
2024/04/03 01:48:04;;;;;;;10.57;1.83;;;25.50;56.60;;;;;;5075310;28;20191;-73
2024/04/03 01:50:39;;;;;;;5.83;1.60;;;25.80;55.60;;;;;;5074365;28;20633;-75
2024/04/03 01:53:07;;;;;;;6.33;1.93;;;25.80;55.40;;;;;;5074518;28;20194;-77
2024/04/03 01:55:34;;;;;;;6.67;1.70;;;25.90;55.00;;;;;;5069655;28;20578;-75
2024/04/03 01:58:01;;;;;;;8.60;2.00;;;25.80;54.40;;;;;;5075496;28;20219;-76
2024/04/03 02:00:29;;;;;;;7.27;2.00;;;26.00;53.80;;;;;;5080176;28;20183;-73
2024/04/03 02:02:56;;;;;;;7.13;1.80;;;25.90;54.70;;;;;;5061164;28;20187;-76
2024/04/03 02:05:24;;;;;;;6.83;1.70;;;26.00;55.20;;;;;;5060301;28;20192;-71
2024/04/03 02:07:51;;;;;;;6.23;1.80;;;26.40;54.20;;;;;;5072123;28;20175;-74
2024/04/03 02:10:19;;;;;;;5.50;1.50;;;26.80;52.80;;;;;;5079857;28;20270;-71
2024/04/03 02:12:46;;;;;;;6.23;1.67;;;26.70;52.00;;;;;;5075993;28;20189;-71
2024/04/03 02:15:16;;;;;;;7.37;1.80;;;27.00;52.10;;;;;;5073739;28;20183;-71
2024/04/03 02:17:46;;;;;;;3.97;1.27;;;27.10;52.70;;;;;;5078703;28;20333;-71
2024/04/03 02:20:13;;;;;;;4.47;1.33;;;27.60;51.50;;;;;;5071633;28;20293;-71
2024/04/03 02:22:40;;;;;;;4.40;1.40;;;27.00;53.40;;;;;;5074753;28;20221;-72
2024/04/03 02:25:07;;;;;;;6.57;1.90;;;26.40;54.30;;;;;;5071208;28;20179;-73
2024/04/03 02:27:35;;;;;;;5.07;1.30;;;25.80;56.40;;;;;;5072399;28;20183;-72
2024/04/03 02:30:03;;;;;;;7.50;1.77;;;25.30;57.50;;;;;;5072854;28;20218;-70
2024/04/03 02:32:30;;;;;;;6.33;1.40;;;25.00;58.30;;;;;;5073907;28;20183;-70
2024/04/03 02:34:57;;;;;;;5.30;1.20;;;24.80;59.90;;;;;;5068546;28;20551;-71
2024/04/03 02:37:25;;;;;;;5.17;1.23;;;24.40;61.00;;;;;;5071732;28;20243;-72
2024/04/03 02:39:52;;;;;;;6.70;1.30;;;24.30;61.20;;;;;;5072386;28;20226;-71
2024/04/03 02:42:20;;;;;;;4.50;1.00;;;24.10;62.00;;;;;;5077184;28;20179;-71
2024/04/03 02:44:47;;;;;;;6.87;1.00;;;23.90;62.70;;;;;;5072164;28;20648;-68
2024/04/03 02:47:14;;;;;;;8.13;1.30;;;24.00;62.10;;;;;;5080111;28;20191;-72
2024/04/03 02:49:42;;;;;;;6.53;1.23;;;23.90;62.70;;;;;;5074456;28;20642;-70
2024/04/03 02:52:09;;;;;;;3.97;1.60;;;24.20;62.30;;;;;;5074938;28;20664;-74
2024/04/03 02:54:36;;;;;;;6.70;1.53;;;24.30;61.50;;;;;;5072822;28;20182;-71
2024/04/03 02:57:04;;;;;;;3.30;1.20;;;24.20;61.50;;;;;;5077738;28;20183;-69
2024/04/03 02:59:32;;;;;;;6.53;1.30;;;24.20;61.20;;;;;;5075247;28;20195;-71
2024/04/03 03:01:59;;;;;;;5.43;1.50;;;24.00;61.40;;;;;;5072714;28;20708;-72
2024/04/03 03:04:26;;;;;;;5.77;1.30;;;23.90;61.70;;;;;;5075300;28;20629;-72
2024/04/03 03:06:54;;;;;;;3.73;1.50;;;24.10;61.60;;;;;;5071023;28;20194;-72
2024/04/03 03:09:25;;;;;;;5.40;0.93;;;24.30;61.40;;;;;;5075115;28;20641;-70
2024/04/03 03:11:52;;;;;;;6.13;1.53;;;24.20;61.60;;;;;;5070448;28;20190;-70
2024/04/03 03:14:19;;;;;;;8.30;1.53;;;24.20;61.60;;;;;;5069769;28;20528;-71
2024/04/03 03:16:47;;;;;;;11.20;1.33;;;24.70;60.10;;;;;;5074798;28;20190;-71
2024/04/03 03:19:14;;;;;;;7.43;1.30;;;24.80;60.10;;;;;;5069870;28;20226;-71
2024/04/03 03:21:41;;;;;;;6.30;0.90;;;25.30;59.40;;;;;;5071460;28;20197;-73
2024/04/03 03:24:08;;;;;;;3.77;1.20;;;26.50;56.20;;;;;;5071871;28;20176;-71
2024/04/03 03:26:36;;;;;;;4.07;1.33;;;26.90;54.50;;;;;;5068383;28;20175;-73
2024/04/03 03:29:03;;;;;;;5.20;1.20;;;27.30;54.10;;;;;;5071189;28;20201;-75
2024/04/03 03:31:30;;;;;;;4.40;1.00;;;27.70;52.10;;;;;;5075494;28;20212;-70
2024/04/03 03:33:58;;;;;;;3.67;1.43;;;27.30;53.20;;;;;;5067331;28;20195;-72
2024/04/03 03:36:25;;;;;;;5.33;1.33;;;26.60;56.20;;;;;;5070286;28;20645;-72
2024/04/03 03:38:52;;;;;;;5.03;1.20;;;26.30;56.50;;;;;;4969938;28;2930594;-73
2024/04/03 03:41:20;;;;;;;6.80;1.77;;;25.80;58.90;;;;;;5071107;28;20183;-73
2024/04/03 03:43:47;;;;;;;6.87;1.40;;;25.90;59.10;;;;;;5077668;28;20183;-72
2024/04/03 03:46:16;;;;;;;6.80;1.43;;;25.60;60.20;;;;;;5077239;28;20191;-72
2024/04/03 03:54:15;;;;;;;5.43;1.77;;;24.70;63.10;;;;;;5072702;28;20214;-77
2024/04/03 03:56:42;;;;;;;4.67;1.47;;;24.50;64.10;;;;;;5069741;28;20183;-73
2024/04/03 03:59:09;;;;;;;7.60;1.63;;;24.20;64.90;;;;;;5070440;28;20281;-74
2024/04/03 04:01:37;;;;;;;7.13;2.03;;;23.90;66.20;;;;;;5065575;28;20483;-72
2024/04/03 04:04:04;;;;;;;10.80;2.13;;;24.00;66.70;;;;;;5077925;28;20205;-70
2024/04/03 04:06:31;;;;;;;8.57;2.33;;;24.00;66.80;;;;;;5081700;28;20279;-73
2024/04/03 04:08:59;;;;;;;9.70;2.47;;;24.10;66.00;;;;;;5073358;28;20197;-74
2024/04/03 04:11:26;;;;;;;9.23;2.20;;;24.50;66.00;;;;;;5070593;28;20187;-71
2024/04/03 04:13:53;;;;;;;9.63;2.40;;;25.10;64.30;;;;;;5075499;28;20202;-71
2024/04/03 04:16:21;;;;;;;8.53;2.03;;;25.30;63.30;;;;;;5072365;28;20183;-70
2024/04/03 04:18:48;;;;;;;7.67;2.07;;;25.40;63.10;;;;;;5079464;28;20356;-71
2024/04/03 04:21:16;;;;;;;8.00;2.23;;;25.90;61.00;;;;;;5072537;28;20637;-69
2024/04/03 04:23:43;;;;;;;10.10;2.40;;;25.00;62.90;;;;;;5077867;28;20270;-74
2024/04/03 04:26:10;;;;;;;6.37;1.90;;;25.10;63.00;;;;;;5072806;28;20187;-74
2024/04/03 04:28:37;;;;;;;5.63;1.83;;;25.20;62.30;;;;;;5080012;28;20202;-70
2024/04/03 04:31:06;;;;;;;8.53;2.13;;;24.70;63.50;;;;;;5077003;28;20179;-72
2024/04/03 04:33:36;;;;;;;9.87;1.93;;;24.30;65.20;;;;;;5069617;28;20179;-70
2024/04/03 04:36:03;;;;;;;10.47;2.37;;;24.10;66.00;;;;;;5075468;28;20186;-73
2024/04/03 04:38:33;;;;;;;8.10;1.77;;;23.90;66.90;;;;;;5074403;28;20251;-70
2024/04/03 04:41:04;;;;;;;7.60;2.37;;;23.80;67.20;;;;;;5071959;28;20776;-71
2024/04/03 04:43:33;;;;;;;8.33;2.30;;;23.60;68.80;;;;;;5077001;28;20621;-68
2024/04/03 04:46:02;;;;;;;9.53;2.37;;;23.60;68.60;;;;;;5074264;28;20195;-71
2024/04/03 04:48:33;;;;;;;7.63;2.17;;;23.50;69.40;;;;;;5058788;28;20214;-71
2024/04/03 04:51:02;;;;;;;12.57;2.10;;;23.60;68.90;;;;;;5078323;28;20649;-71
2024/04/03 04:53:30;;;;;;;7.97;2.37;;;23.50;69.30;;;;;;5074569;28;20206;-69
2024/04/03 04:56:07;;;;;;;15.10;2.57;;;23.30;69.40;;;;;;5078494;28;20258;-73
2024/04/03 04:58:35;;;;;;;11.07;2.37;;;23.20;69.70;;;;;;5075796;28;20206;-74
2024/04/03 05:01:06;;;;;;;9.87;2.03;;;23.10;70.00;;;;;;5074929;28;20645;-69
2024/04/03 05:03:35;;;;;;;11.07;2.27;;;22.90;70.40;;;;;;5074018;28;20270;-72
2024/04/03 05:06:03;;;;;;;6.20;2.10;;;23.10;70.30;;;;;;5076078;28;20194;-72
2024/04/03 05:08:33;;;;;;;11.40;1.90;;;24.20;67.20;;;;;;5077264;28;20196;-71
2024/04/03 05:11:02;;;;;;;8.60;2.40;;;25.10;64.60;;;;;;5079640;28;20262;-72
2024/04/03 05:13:33;;;;;;;8.03;2.03;;;26.10;62.30;;;;;;5074928;28;20179;-72
2024/04/03 05:16:07;;;;;;;6.77;2.00;;;26.50;59.50;;;;;;5078502;28;20558;-71
2024/04/03 05:18:35;;;;;;;8.23;1.97;;;25.60;62.10;;;;;;5078369;28;20271;-70
2024/04/03 05:21:03;;;;;;;11.43;2.27;;;26.20;60.90;;;;;;5078526;28;20625;-71
2024/04/03 05:23:30;;;;;;;11.80;2.13;;;26.80;58.30;;;;;;5078347;28;20287;-72
2024/04/03 05:26:02;;;;;;;11.40;2.50;;;27.00;57.60;;;;;;5072957;28;20696;-73
2024/04/03 05:28:33;;;;;;;10.77;2.57;;;26.90;57.30;;;;;;5073118;28;20195;-71
2024/04/03 05:31:17;;;;;;;10.33;2.30;;;26.50;58.00;;;;;;5080736;28;20183;-71
2024/04/03 05:33:45;;;;;;;9.07;2.30;;;27.20;57.30;;;;;;5075632;28;20205;-71
2024/04/03 05:36:12;;;;;;;4.83;1.83;;;26.80;57.70;;;;;;5082019;28;20279;-73
2024/04/03 05:38:41;;;;;;;7.50;2.00;;;26.40;58.40;;;;;;5075856;28;20605;-72
2024/04/03 05:41:08;;;;;;;9.00;2.07;;;26.70;58.90;;;;;;5058826;28;20307;-71
2024/04/03 05:43:36;;;;;;;10.23;1.87;;;27.00;57.10;;;;;;5075750;28;20187;-73
2024/04/03 05:46:04;;;;;;;12.20;2.10;;;26.60;58.70;;;;;;5073451;28;20183;-71
2024/04/03 05:48:31;;;;;;;7.60;2.20;;;26.40;57.70;;;;;;5073043;28;20187;-71
2024/04/03 05:51:02;;;;;;;9.83;2.13;;;25.80;60.10;;;;;;5075462;28;20591;-72
2024/04/03 05:53:31;;;;;;;7.93;2.00;;;26.20;58.30;;;;;;5076120;28;20180;-71
2024/04/03 05:56:00;;;;;;;8.13;1.97;;;25.80;58.70;;;;;;5074001;28;20183;-74
2024/04/03 05:58:28;;;;;;;10.77;2.20;;;25.80;59.80;;;;;;5074844;28;20221;-72
2024/04/03 06:00:57;;;;;;;6.50;2.17;;;25.80;59.10;;;;;;5075967;28;20194;-72
2024/04/03 06:03:25;;;;;;;8.67;2.00;;;25.80;60.50;;;;;;5074191;28;20702;-74
2024/04/03 06:05:59;;;;;;;8.13;2.03;;;25.30;61.10;;;;;;5074568;28;20187;-75
2024/04/03 06:08:27;;;;;;;9.73;1.77;;;24.80;62.60;;;;;;5078028;28;20261;-72
2024/04/03 06:10:55;;;;;;;7.10;2.50;;;24.90;62.30;;;;;;5071444;28;20191;-72
2024/04/03 06:13:22;;;;;;;10.53;1.90;;;24.70;63.00;;;;;;5076794;28;20182;-73
2024/04/03 06:15:50;;;;;;;11.37;2.23;;;24.90;62.60;;;;;;5074377;28;20520;-73
2024/04/03 06:18:17;;;;;;;4.97;2.20;;;24.70;62.60;;;;;;5058759;28;20206;-73
2024/04/03 06:20:44;;;;;;;9.63;2.50;;;24.40;63.60;;;;;;5074108;28;20202;-75
2024/04/03 06:23:12;;;;;;;10.30;1.97;;;24.30;64.10;;;;;;5073607;28;20175;-74
2024/04/03 06:25:39;;;;;;;6.00;2.10;;;24.60;64.30;;;;;;5077787;28;20688;-73
2024/04/03 06:28:07;;;;;;;6.63;1.80;;;24.60;63.30;;;;;;5075629;28;20217;-73
2024/04/03 06:30:34;;;;;;;9.67;2.00;;;24.80;62.70;;;;;;5074291;28;20187;-73
2024/04/03 06:33:02;;;;;;;12.03;2.13;;;24.90;61.90;;;;;;5078122;28;20178;-72
2024/04/03 06:35:29;;;;;;;12.37;2.87;;;24.30;64.50;;;;;;5074884;28;20205;-69
2024/04/03 06:37:57;;;;;;;9.60;2.23;;;24.10;64.30;;;;;;5068827;28;20627;-71
2024/04/03 06:40:24;;;;;;;11.27;2.63;;;23.70;65.40;;;;;;5074256;28;20194;-71
2024/04/03 06:42:51;;;;;;;11.93;2.67;;;23.60;65.50;;;;;;5074095;28;20182;-70
2024/04/03 06:45:19;;;;;;;7.87;2.10;;;23.60;66.30;;;;;;5073353;28;20252;-71
2024/04/03 06:47:49;;;;;;;11.67;2.50;;;23.70;65.90;;;;;;5074519;28;20228;-69
2024/04/03 06:50:17;;;;;;;15.27;2.97;;;23.70;65.40;;;;;;5072174;28;20235;-71
2024/04/03 06:52:44;;;;;;;8.77;2.27;;;23.70;65.50;;;;;;5072403;28;20215;-71
2024/04/03 06:55:11;;;;;;;8.50;2.00;;;23.60;66.40;;;;;;5077576;28;20299;-70
2024/04/03 06:57:39;;;;;;;15.67;2.40;;;23.80;65.80;;;;;;5069048;28;20233;-71
2024/04/03 07:00:06;;;;;;;11.97;2.43;;;23.70;65.50;;;;;;5071773;28;20494;-71
2024/04/03 07:02:34;;;;;;;11.10;2.27;;;23.80;65.50;;;;;;5069134;28;20183;-72
2024/04/03 07:05:01;;;;;;;11.93;2.40;;;23.90;64.80;;;;;;5070857;28;20183;-70
2024/04/03 07:07:29;;;;;;;7.77;2.50;;;23.90;64.70;;;;;;5070824;28;20184;-72
2024/04/03 07:09:58;;;;;;;8.23;1.93;;;23.80;65.50;;;;;;5075135;28;20187;-72
2024/04/03 07:12:25;;;;;;;8.53;1.90;;;23.60;66.20;;;;;;5066577;28;20188;-72
2024/04/03 07:14:54;;;;;;;10.27;2.17;;;23.60;66.00;;;;;;5067574;28;20239;-71
2024/04/03 07:17:22;;;;;;;13.03;2.53;;;23.30;66.60;;;;;;5070647;28;20179;-72
2024/04/03 07:19:49;;;;;;;10.77;2.80;;;22.80;67.80;;;;;;5071927;28;20198;-72
2024/04/03 07:22:16;;;;;;;15.03;2.70;;;22.50;69.20;;;;;;5075352;28;20605;-71
2024/04/03 07:24:44;;;;;;;15.33;2.70;;;22.30;70.10;;;;;;5079493;28;20197;-73
2024/04/03 07:27:11;;;;;;;10.50;3.07;;;22.30;70.30;;;;;;5071708;28;20172;-70
2024/04/03 07:29:38;;;;;;;12.77;2.53;;;22.10;70.90;;;;;;5070168;28;20226;-71
2024/04/03 07:32:06;;;;;;;9.50;2.60;;;21.90;71.00;;;;;;5070891;28;20195;-69
2024/04/03 07:34:33;;;;;;;9.37;2.70;;;21.80;71.80;;;;;;5072548;28;20671;-71
2024/04/03 07:37:00;;;;;;;14.77;2.63;;;21.80;72.40;;;;;;5069934;28;20555;-72
2024/04/03 07:39:28;;;;;;;10.87;2.33;;;21.60;72.40;;;;;;5071818;28;20697;-72
2024/04/03 07:41:58;;;;;;;8.53;2.60;;;21.60;72.80;;;;;;5071224;28;20225;-71
2024/04/03 07:44:26;;;;;;;11.80;2.93;;;21.40;73.20;;;;;;5072618;28;20712;-72
2024/04/03 07:46:53;;;;;;;16.83;3.00;;;21.30;73.60;;;;;;5070946;28;20184;-71
2024/04/03 07:49:20;;;;;;;13.03;3.13;;;21.30;73.80;;;;;;5068644;28;20191;-73
2024/04/03 07:51:48;;;;;;;9.03;2.20;;;21.20;73.90;;;;;;5072260;28;20198;-70
2024/04/03 07:54:15;;;;;;;11.60;2.80;;;21.10;73.90;;;;;;5071688;28;20175;-71
2024/04/03 07:56:42;;;;;;;11.17;2.90;;;21.10;74.10;;;;;;5066185;28;20193;-72
2024/04/03 07:59:12;;;;;;;14.73;2.50;;;21.10;73.90;;;;;;5055924;28;20218;-71
2024/04/03 08:01:39;;;;;;;11.00;2.60;;;21.00;74.00;;;;;;5071748;28;20231;-71
2024/04/03 08:04:07;;;;;;;12.90;2.93;;;21.10;74.30;;;;;;5070063;28;20185;-72
2024/04/03 08:06:34;;;;;;;22.77;3.37;;;21.00;74.30;;;;;;5072310;28;20183;-73
2024/04/03 08:09:03;;;;;;;10.93;2.40;;;21.00;74.40;;;;;;5072568;28;20316;-73
2024/04/03 08:11:32;;;;;;;11.03;2.53;;;20.90;74.50;;;;;;5071068;28;20634;-73
2024/04/03 08:14:00;;;;;;;12.63;2.40;;;20.90;74.70;;;;;;5074217;28;20186;-72
2024/04/03 08:16:27;;;;;;;14.10;2.70;;;20.90;74.90;;;;;;5075252;28;20187;-72
2024/04/03 08:18:55;;;;;;;8.20;2.93;;;20.90;75.00;;;;;;5076555;28;20218;-73
2024/04/03 08:21:22;;;;;;;15.70;3.90;;;21.00;75.20;;;;;;5075935;28;20199;-71
2024/04/03 08:23:49;;;;;;;9.07;2.67;;;20.90;75.20;;;;;;5076193;28;20186;-72
2024/04/03 08:26:17;;;;;;;7.53;2.37;;;20.90;75.30;;;;;;5076722;28;20206;-72
2024/04/03 08:28:44;;;;;;;16.93;2.87;;;20.80;75.50;;;;;;5101251;28;20272;-72
2024/04/03 08:31:16;;;;;;;8.37;2.40;;;20.80;75.60;;;;;;5072885;28;20186;-74
2024/04/03 08:33:44;;;;;;;8.07;2.47;;;20.80;75.60;;;;;;5075869;28;20726;-73
2024/04/03 08:36:11;;;;;;;9.50;2.20;;;20.80;75.70;;;;;;5074387;28;20226;-73
2024/04/03 08:38:39;;;;;;;10.27;2.70;;;20.80;75.80;;;;;;5074476;28;20242;-73
2024/04/03 08:41:06;;;;;;;11.23;2.40;;;20.80;75.60;;;;;;5074816;28;20175;-73
2024/04/03 08:43:37;;;;;;;7.33;2.07;;;20.80;75.80;;;;;;5075266;28;20266;-73
2024/04/03 08:46:06;;;;;;;13.47;2.67;;;20.70;75.90;;;;;;5074189;28;20182;-72
2024/04/03 08:48:35;;;;;;;9.13;2.30;;;20.80;76.00;;;;;;5072128;28;20188;-71
2024/04/03 08:51:02;;;;;;;10.23;2.67;;;20.70;75.90;;;;;;5078447;28;20183;-72
2024/04/03 08:53:29;;;;;;;9.27;2.20;;;20.70;76.00;;;;;;5075556;28;20603;-72
2024/04/03 08:55:57;;;;;;;18.53;3.33;;;20.70;76.10;;;;;;5075375;28;20180;-74
2024/04/03 08:58:25;;;;;;;12.67;2.47;;;20.70;76.20;;;;;;5075313;28;20247;-72
2024/04/03 09:00:53;;;;;;;13.43;2.77;;;20.70;76.20;;;;;;5074533;28;20240;-73
2024/04/03 09:03:21;;;;;;;10.00;2.53;;;20.70;76.30;;;;;;5078479;28;20241;-72
2024/04/03 09:05:55;;;;;;;8.63;2.10;;;20.70;76.30;;;;;;5077176;28;20696;-71
2024/04/03 09:08:22;;;;;;;12.33;2.90;;;20.70;76.30;;;;;;5080690;28;20190;-71
2024/04/03 09:10:50;;;;;;;9.93;2.47;;;20.60;76.30;;;;;;5074546;28;20184;-71
2024/04/03 09:13:18;;;;;;;17.23;2.60;;;20.70;76.40;;;;;;5079192;28;20270;-73
2024/04/03 09:15:45;;;;;;;8.60;2.50;;;20.60;76.50;;;;;;5074531;28;20269;-72
2024/04/03 09:18:14;;;;;;;8.10;2.47;;;20.60;76.50;;;;;;5073750;28;20222;-75
2024/04/03 09:20:42;;;;;;;14.97;2.70;;;20.60;76.70;;;;;;5072669;28;20272;-73
2024/04/03 09:23:11;;;;;;;9.37;2.67;;;20.60;76.60;;;;;;5075942;28;20195;-73
2024/04/03 09:25:39;;;;;;;11.07;2.33;;;20.60;76.70;;;;;;5075134;28;20179;-74
2024/04/03 09:28:08;;;;;;;10.30;2.67;;;20.60;76.80;;;;;;5076210;28;20244;-72
2024/04/03 09:30:54;;;;;;;13.27;2.50;;;20.60;76.90;;;;;;5079535;28;20282;-73
2024/04/03 09:33:21;;;;;;;17.17;2.40;;;20.60;77.00;;;;;;5073353;28;20547;-73
2024/04/03 09:35:49;;;;;;;10.20;2.10;;;20.60;77.10;;;;;;5077589;28;20204;-73
2024/04/03 09:38:18;;;;;;;12.67;2.07;;;20.60;77.10;;;;;;5072905;28;20218;-74
2024/04/03 09:40:51;;;;;;;9.80;2.37;;;20.60;77.00;;;;;;5080767;28;20754;-74
2024/04/03 09:43:25;;;;;;;12.67;2.47;;;20.60;77.00;;;;;;5075994;28;20175;-73
2024/04/03 09:45:59;;;;;;;15.13;2.53;;;20.50;77.10;;;;;;5075576;28;20186;-73
2024/04/03 09:48:27;;;;;;;12.37;2.83;;;20.50;77.10;;;;;;5071008;28;20175;-74
2024/04/03 09:50:55;;;;;;;13.93;2.80;;;20.50;77.20;;;;;;5075180;28;20334;-74
2024/04/03 09:53:24;;;;;;;13.83;2.47;;;20.50;77.30;;;;;;5074699;28;20179;-73
2024/04/03 09:55:53;;;;;;;9.43;2.23;;;20.50;77.20;;;;;;5071406;28;20256;-72
2024/04/03 09:58:26;;;;;;;9.33;2.20;;;20.40;77.30;;;;;;5074523;28;20739;-73
2024/04/03 10:00:57;;;;;;;12.77;2.80;;;20.40;77.50;;;;;;5079850;28;20657;-73
2024/04/03 10:03:28;;;;;;;12.43;2.50;;;20.40;77.50;;;;;;5070759;28;20182;-72
2024/04/03 10:06:25;;;;;;;10.73;2.30;;;20.40;77.50;;;;;;5079100;28;20183;-71
2024/04/03 10:08:52;;;;;;;12.47;2.50;;;20.40;77.60;;;;;;5076418;28;20183;-72
2024/04/03 10:11:20;;;;;;;10.60;2.40;;;20.40;77.60;;;;;;5074167;28;20212;-71
2024/04/03 10:13:50;;;;;;;9.97;2.67;;;20.40;77.70;;;;;;5074462;28;20222;-71
2024/04/03 10:16:17;;;;;;;12.53;2.63;;;20.40;77.60;;;;;;5087471;28;20654;-72
2024/04/03 10:18:52;;;;;;;14.13;2.20;;;20.40;77.80;;;;;;5076376;28;20307;-72
2024/04/03 10:21:20;;;;;;;13.27;2.23;;;20.30;77.80;;;;;;5069438;28;20175;-72
2024/04/03 10:23:51;;;;;;;11.57;2.30;;;20.30;77.80;;;;;;5074773;28;20186;-73
2024/04/03 10:26:20;;;;;;;10.20;2.67;;;20.30;77.90;;;;;;5077606;28;20187;-72
2024/04/03 10:28:47;;;;;;;10.83;2.37;;;20.30;78.00;;;;;;5076569;28;20291;-73
2024/04/03 10:31:20;;;;;;;15.33;2.60;;;20.30;77.90;;;;;;5079340;28;20529;-74
2024/04/03 10:33:50;;;;;;;8.63;2.50;;;20.30;78.00;;;;;;5076892;28;20259;-73
2024/04/03 10:36:18;;;;;;;8.80;2.67;;;20.30;78.00;;;;;;5072046;28;20179;-74
2024/04/03 10:38:46;;;;;;;12.77;2.43;;;20.30;78.00;;;;;;5075413;28;20245;-73
2024/04/03 10:41:13;;;;;;;11.37;2.60;;;20.30;78.10;;;;;;5077553;28;20171;-73
2024/04/03 10:43:41;;;;;;;14.10;2.47;;;20.30;78.10;;;;;;5075741;28;20187;-75
2024/04/03 10:46:13;;;;;;;14.63;2.50;;;20.30;78.10;;;;;;5087505;28;20183;-74
2024/04/03 10:48:45;;;;;;;16.90;3.00;;;20.30;78.10;;;;;;5073783;28;20191;-74
2024/04/03 10:51:12;;;;;;;8.43;2.07;;;20.30;78.00;;;;;;5070570;28;20210;-74
2024/04/03 10:53:39;;;;;;;11.03;2.60;;;20.40;77.90;;;;;;5076551;28;20194;-74
2024/04/03 10:56:07;;;;;;;10.70;2.17;;;20.40;77.70;;;;;;5080035;28;20187;-74
2024/04/03 10:58:34;;;;;;;13.50;2.30;;;20.40;77.70;;;;;;5075922;28;20581;-74
2024/04/03 11:01:03;;;;;;;11.67;2.40;;;20.40;77.70;;;;;;5068825;28;20191;-74
2024/04/03 11:03:31;;;;;;;8.23;2.60;;;20.50;77.60;;;;;;5076129;28;20184;-73
2024/04/03 11:05:58;;;;;;;9.57;2.03;;;20.50;77.50;;;;;;5074711;28;20268;-76
2024/04/03 11:08:26;;;;;;;9.60;2.13;;;20.50;77.40;;;;;;5074153;28;20183;-74
2024/04/03 11:11:03;;;;;;;13.33;2.40;;;20.50;77.20;;;;;;5072804;28;20590;-76
2024/04/03 11:13:31;;;;;;;8.90;2.50;;;20.50;77.20;;;;;;5077827;28;20183;-71
2024/04/03 11:15:59;;;;;;;9.27;2.40;;;20.50;77.10;;;;;;5072548;28;20194;-74
2024/04/03 11:18:27;;;;;;;8.87;2.10;;;20.60;77.20;;;;;;5074144;28;20615;-72
2024/04/03 11:20:54;;;;;;;13.43;2.53;;;20.60;77.20;;;;;;5066780;28;20191;-73
2024/04/03 11:23:22;;;;;;;10.60;2.20;;;20.50;77.10;;;;;;5073651;28;20186;-72
2024/04/03 11:25:49;;;;;;;10.50;2.07;;;20.60;77.20;;;;;;5076588;28;20186;-70
2024/04/03 11:28:16;;;;;;;12.83;2.20;;;20.60;77.20;;;;;;5073285;28;20191;-72
2024/04/03 11:30:45;;;;;;;12.27;2.60;;;20.60;77.40;;;;;;5079931;28;20239;-72
2024/04/03 11:33:12;;;;;;;13.13;2.30;;;20.60;77.30;;;;;;5073516;28;20179;-72
2024/04/03 11:35:40;;;;;;;14.30;2.33;;;20.60;77.30;;;;;;5073406;28;20175;-72
2024/04/03 11:38:07;;;;;;;17.87;2.80;;;20.60;77.30;;;;;;5072789;28;20226;-71
2024/04/03 11:40:34;;;;;;;12.47;2.53;;;20.60;77.10;;;;;;5072958;28;20188;-75
2024/04/03 11:43:02;;;;;;;10.77;2.43;;;20.60;77.10;;;;;;5074363;28;20179;-73
2024/04/03 11:45:29;;;;;;;10.80;1.83;;;20.60;77.00;;;;;;5072980;28;20198;-72
2024/04/03 11:47:56;;;;;;;13.53;2.40;;;20.60;77.00;;;;;;5078053;28;20201;-72
2024/04/03 11:50:24;;;;;;;9.77;2.47;;;20.60;77.00;;;;;;5078607;28;20175;-71
2024/04/03 11:52:51;;;;;;;9.57;2.03;;;20.60;76.90;;;;;;5078115;28;20232;-71
2024/04/03 11:55:18;;;;;;;11.80;2.10;;;20.60;76.80;;;;;;5081100;28;20182;-71
2024/04/03 11:57:46;;;;;;;7.77;2.37;;;20.60;76.80;;;;;;5082096;28;20183;-73
2024/04/03 12:00:14;;;;;;;11.90;2.40;;;20.60;76.80;;;;;;5083891;28;20174;-73
2024/04/03 12:02:42;;;;;;;19.33;2.97;;;20.60;76.60;;;;;;5081903;28;20256;-72
2024/04/03 12:05:10;;;;;;;11.07;1.87;;;20.70;76.70;;;;;;5080370;28;20599;-73
2024/04/03 12:07:37;;;;;;;8.40;2.17;;;20.70;76.60;;;;;;5078147;28;20209;-71
2024/04/03 12:10:09;;;;;;;7.47;2.00;;;20.70;76.80;;;;;;5079028;28;20194;-72
2024/04/03 12:12:37;;;;;;;8.17;1.97;;;20.70;76.60;;;;;;5078864;28;20179;-71
2024/04/03 12:15:07;;;;;;;8.97;2.10;;;20.70;76.80;;;;;;5077417;28;20172;-71
2024/04/03 12:17:35;;;;;;;8.63;2.03;;;20.70;76.70;;;;;;5078162;28;20634;-71
2024/04/03 12:20:06;;;;;;;10.80;2.10;;;20.70;76.60;;;;;;5073892;28;20188;-71
2024/04/03 12:22:35;;;;;;;11.43;2.27;;;20.70;76.70;;;;;;5080327;28;20183;-71
2024/04/03 12:25:04;;;;;;;12.77;2.10;;;20.70;76.70;;;;;;5079906;28;20196;-71
2024/04/03 12:27:31;;;;;;;11.43;2.17;;;20.70;76.80;;;;;;5082361;28;20188;-70
2024/04/03 12:29:58;;;;;;;14.00;2.30;;;20.60;76.90;;;;;;5078155;28;20653;-71
2024/04/03 12:32:27;;;;;;;14.67;2.20;;;20.60;76.90;;;;;;5080054;28;20175;-70
2024/04/03 12:34:54;;;;;;;12.87;1.83;;;20.60;76.90;;;;;;5078996;28;20195;-71
2024/04/03 12:37:21;;;;;;;11.07;2.13;;;20.50;76.90;;;;;;5078885;28;20187;-72
2024/04/03 12:39:49;;;;;;;8.43;2.07;;;20.50;76.90;;;;;;5080653;28;20223;-70
2024/04/03 12:42:16;;;;;;;13.23;1.63;;;20.50;76.90;;;;;;5078494;28;20269;-70
2024/04/03 12:44:45;;;;;;;10.63;2.00;;;20.50;77.10;;;;;;5078635;28;20194;-71
2024/04/03 12:47:12;;;;;;;5.90;1.87;;;20.40;77.20;;;;;;5075546;28;20182;-70
2024/04/03 12:49:39;;;;;;;7.83;1.93;;;20.40;77.30;;;;;;5079427;28;20199;-71
2024/04/03 12:52:06;;;;;;;10.50;2.07;;;20.40;77.30;;;;;;5085024;28;20198;-71
2024/04/03 12:54:34;;;;;;;8.63;2.53;;;20.30;77.40;;;;;;5078448;28;20179;-72